aviador You're here:

BKPR Decoded Metar

PRISHTINA in SERBIA
Report Time2017-03-23 04:00:00
UTC Time2017-03-23 04:13:36
Flight Rules vfr VFR
WindCalm
Visibility9999 m
Phenomena:N/A
Clouds:N/A
Expected CloudBase > 2,000 ft AGL from Temp-Dew spread
CeilingNone
Temp05°C (ISA -6)
Dew Point00°C (70% RH)
AAT3.0°C
QNH1017 hPa
Density Alt1,093 ft
Elevation1,890 ft
Report Wrong Elevation
Raw Report
BKPR 230400Z 00000KT CAVOK 05/00 Q1017 NOSIG RMK 17010095=

Extra information for BKPR:More info

Metar Taf Metar & Taf Last 4 Metars F.Rules Stats Wind Profile Meteogram Temp Stats Airport Information Weather charts Add Link Nearby VenuesMetar ALERT Operation Metar Decoded Social comments